Terminal Aerodrome Forecast
Issued by NWS

Home | Current Version | Previous Version | Text Only | Print | Product List | Glossary On
Versions: 1 2 3 4 5 6 7 8 9 10 11 12 13 14 15 16 17 18 19 20 21 22 23 24 25 26 27 28 29 30 31 32 33 34 35 36 37 38 39 40
000
FTUS43 KLOT 241100
TAFMDW
TAF
KMDW 241137Z 2412/2512 24010KT 5SM -RA BR OVC005
     FM241330 27013G22KT 4SM -RA BR OVC006
     FM241630 27020G30KT 4SM -RASN OVC007
     FM241800 25023G34KT 3SM -SN BKN009 OVC013
     FM242200 24021G32KT 5SM -SN BKN012 OVC020
     FM250000 25018G28KT P6SM -SHSN SCT012 OVC022
     FM250600 26013KT P6SM BKN025 OVC035=

USA.gov is the U.S. government's official web portal to all federal, state and local government web resources and services.